Time;durP1;ratioP1;P1;durP2;ratioP2;P2;SDS_P1;SDS_P2;PMS_P1;PMS_P2;Temp;Humidity;BMP_temperature;BMP_pressure;BME280_temperature;BME280_humidity;BME280_pressure;Samples;Min_cycle;Max_cycle;Signal;HPM_P1;HPM_P2
2021/05/04 00:00:18;;;;;;;10.75;6.68;;;10.80;66.20;;;;;;5060553;28;20392;-74
2021/05/04 00:02:44;;;;;;;9.13;6.45;;;10.80;66.00;;;;;;5048443;28;20043;-75
2021/05/04 00:05:10;;;;;;;8.60;6.45;;;10.80;66.00;;;;;;5046134;28;20093;-74
2021/05/04 00:07:36;;;;;;;10.65;6.68;;;10.90;66.40;;;;;;5071570;28;20556;-76
2021/05/04 00:10:02;;;;;;;9.70;6.13;;;10.80;66.40;;;;;;5066959;28;20040;-76
2021/05/04 00:12:28;;;;;;;11.07;6.25;;;10.80;66.90;;;;;;5067279;28;20237;-76
2021/05/04 00:14:54;;;;;;;7.93;5.70;;;10.90;66.30;;;;;;5062468;28;20083;-76
2021/05/04 00:17:27;;;;;;;9.00;6.25;;;10.90;66.10;;;;;;5047253;28;20072;-74
2021/05/04 00:19:53;;;;;;;13.10;5.18;;;10.90;65.90;;;;;;5050774;28;20170;-74
2021/05/04 00:22:18;;;;;;;12.30;6.07;;;10.90;65.60;;;;;;5040377;28;20786;-74
2021/05/04 00:24:44;;;;;;;10.18;6.03;;;11.00;65.80;;;;;;5072146;28;20037;-73
2021/05/04 00:27:10;;;;;;;8.65;5.65;;;11.00;66.10;;;;;;5061867;28;20048;-76
2021/05/04 00:29:36;;;;;;;6.05;4.80;;;11.10;66.80;;;;;;5055317;28;20403;-75
2021/05/04 00:32:02;;;;;;;5.95;4.20;;;11.00;66.50;;;;;;5071907;28;20036;-76
2021/05/04 00:34:28;;;;;;;6.35;4.32;;;11.00;65.60;;;;;;5059598;28;20584;-74
2021/05/04 00:36:54;;;;;;;6.55;4.57;;;11.20;64.90;;;;;;5065534;28;20036;-74
2021/05/04 00:39:20;;;;;;;8.68;4.60;;;11.30;65.00;;;;;;5049358;28;20606;-75
2021/05/04 00:41:46;;;;;;;7.68;4.47;;;11.30;65.30;;;;;;5049123;28;20040;-73
2021/05/04 00:44:12;;;;;;;7.20;4.00;;;11.30;65.60;;;;;;5052639;28;20509;-76
2021/05/04 00:46:38;;;;;;;7.25;4.50;;;11.30;64.80;;;;;;5066410;28;20036;-77
2021/05/04 00:49:04;;;;;;;5.97;4.07;;;11.30;65.40;;;;;;5080764;28;20032;-73
2021/05/04 00:51:29;;;;;;;8.52;4.15;;;11.30;65.80;;;;;;5073396;28;20033;-75
2021/05/04 00:53:55;;;;;;;7.18;4.20;;;11.20;65.90;;;;;;5073447;28;20386;-75
2021/05/04 00:56:23;;;;;;;7.00;4.65;;;11.10;66.50;;;;;;5073484;28;20036;-78
2021/05/04 00:58:51;;;;;;;12.95;4.30;;;11.00;67.20;;;;;;5082537;28;20038;-73
2021/05/04 01:01:18;;;;;;;5.68;4.00;;;10.90;67.10;;;;;;5087164;28;20044;-75
2021/05/04 01:03:44;;;;;;;6.82;4.57;;;10.90;67.70;;;;;;5079048;28;20054;-77
2021/05/04 01:06:10;;;;;;;7.53;4.75;;;10.90;68.90;;;;;;5076563;28;20167;-75
2021/05/04 01:08:37;;;;;;;8.55;4.85;;;10.80;69.90;;;;;;5081829;28;20103;-77
2021/05/04 01:11:03;;;;;;;7.03;5.70;;;10.60;70.60;;;;;;5069466;28;20048;-75
2021/05/04 01:13:29;;;;;;;5.60;4.57;;;10.60;71.40;;;;;;5063687;28;20433;-76
2021/05/04 01:15:55;;;;;;;6.45;4.60;;;10.50;72.10;;;;;;5065200;28;20499;-76
2021/05/04 01:18:20;;;;;;;6.80;4.90;;;10.40;72.80;;;;;;5049521;28;20032;-78
2021/05/04 01:20:49;;;;;;;7.18;5.40;;;10.30;73.70;;;;;;5060272;28;20354;-76
2021/05/04 01:23:15;;;;;;;10.25;5.07;;;10.30;74.80;;;;;;5066148;28;20040;-80
2021/05/04 01:25:41;;;;;;;9.05;5.57;;;10.10;75.70;;;;;;5063058;28;20117;-75
2021/05/04 01:28:06;;;;;;;7.25;5.13;;;10.00;77.50;;;;;;5066151;28;20745;-75
2021/05/04 01:30:32;;;;;;;10.77;5.03;;;9.80;78.30;;;;;;5075612;28;20040;-75
2021/05/04 01:33:00;;;;;;;8.10;5.50;;;9.70;79.10;;;;;;5076843;28;20107;-74
2021/05/04 01:35:26;;;;;;;6.13;5.47;;;9.70;80.00;;;;;;5078106;28;20036;-75
2021/05/04 01:37:53;;;;;;;6.53;5.22;;;9.60;80.70;;;;;;5068260;28;20568;-78
2021/05/04 01:40:19;;;;;;;6.80;5.68;;;9.50;81.80;;;;;;5075121;28;20406;-74
2021/05/04 01:42:46;;;;;;;8.30;5.75;;;9.50;82.20;;;;;;5079693;28;20038;-74
2021/05/04 01:45:13;;;;;;;8.18;6.25;;;9.40;83.00;;;;;;5081707;28;20090;-76
2021/05/04 01:47:42;;;;;;;7.68;5.75;;;9.30;83.60;;;;;;5070522;28;20514;-76
2021/05/04 01:50:10;;;;;;;7.15;5.55;;;9.20;84.30;;;;;;5093178;28;20680;-76
2021/05/04 01:52:36;;;;;;;10.82;6.70;;;9.10;85.10;;;;;;5075282;28;20316;-76
2021/05/04 01:55:03;;;;;;;9.82;5.43;;;9.10;85.80;;;;;;5067729;28;20113;-76
2021/05/04 01:57:29;;;;;;;6.70;5.40;;;9.10;86.40;;;;;;5090931;28;20038;-76
2021/05/04 01:59:55;;;;;;;10.10;6.68;;;9.00;86.80;;;;;;5069224;28;20036;-78
2021/05/04 02:02:21;;;;;;;9.25;6.47;;;8.90;87.40;;;;;;5080808;28;20089;-75
2021/05/04 02:04:47;;;;;;;12.60;6.80;;;9.00;87.70;;;;;;5080642;28;20816;-76
2021/05/04 02:07:12;;;;;;;7.32;5.47;;;8.80;88.00;;;;;;5071044;28;20040;-76
2021/05/04 02:09:38;;;;;;;9.35;6.35;;;8.80;88.70;;;;;;5082616;28;20127;-76
2021/05/04 02:12:05;;;;;;;9.25;6.90;;;8.80;89.00;;;;;;5076247;28;20530;-76
2021/05/04 02:14:30;;;;;;;8.25;6.30;;;8.70;89.30;;;;;;5063684;28;20035;-75
2021/05/04 02:16:56;;;;;;;8.40;6.07;;;8.70;90.00;;;;;;5052676;28;20032;-77
2021/05/04 02:19:22;;;;;;;8.60;5.88;;;8.60;90.00;;;;;;5045800;28;20430;-75
2021/05/04 02:21:48;;;;;;;13.27;7.35;;;8.60;90.30;;;;;;5063485;28;20060;-76
2021/05/04 02:24:14;;;;;;;9.73;6.32;;;8.60;90.50;;;;;;5062231;28;20115;-76
2021/05/04 02:26:40;;;;;;;11.07;7.18;;;8.50;90.60;;;;;;5067155;28;20028;-76
2021/05/04 02:29:05;;;;;;;8.85;6.72;;;8.50;90.80;;;;;;5059407;28;20471;-77
2021/05/04 02:31:32;;;;;;;8.27;6.43;;;8.40;91.00;;;;;;5073170;28;20066;-75
2021/05/04 02:33:57;;;;;;;7.57;5.93;;;8.50;91.50;;;;;;5079668;28;20116;-80
2021/05/04 02:36:23;;;;;;;11.70;6.60;;;8.40;91.60;;;;;;5059738;28;20070;-75
2021/05/04 02:38:50;;;;;;;12.02;6.43;;;8.40;91.60;;;;;;5066644;28;20501;-76
2021/05/04 02:41:16;;;;;;;11.93;6.47;;;8.40;91.90;;;;;;5066827;28;20560;-79
2021/05/04 02:43:42;;;;;;;10.63;6.20;;;8.40;92.00;;;;;;5079235;28;20487;-79
2021/05/04 02:46:08;;;;;;;7.57;5.07;;;8.30;92.00;;;;;;5074186;28;20035;-75
2021/05/04 02:48:39;;;;;;;8.73;6.30;;;8.30;92.20;;;;;;5073925;28;20032;-75
2021/05/04 02:51:11;;;;;;;11.23;6.28;;;8.30;92.30;;;;;;5066113;28;20111;-75
2021/05/04 02:53:38;;;;;;;11.65;6.30;;;8.20;92.60;;;;;;5065418;28;20111;-77
2021/05/04 02:56:05;;;;;;;12.55;5.97;;;8.20;92.60;;;;;;5061719;28;20502;-76
2021/05/04 02:58:31;;;;;;;10.88;5.47;;;8.20;92.90;;;;;;5064055;28;20467;-76
2021/05/04 03:00:57;;;;;;;11.40;6.53;;;8.10;92.90;;;;;;5077344;28;20385;-77
2021/05/04 03:03:24;;;;;;;7.03;5.88;;;8.10;93.00;;;;;;5081143;28;20786;-77
2021/05/04 03:05:51;;;;;;;10.75;5.53;;;8.10;93.10;;;;;;5072243;28;20446;-78
2021/05/04 03:08:17;;;;;;;9.63;5.68;;;8.10;93.20;;;;;;5079711;28;20036;-75
2021/05/04 03:10:43;;;;;;;7.13;5.40;;;8.10;93.30;;;;;;5067164;28;20437;-75
2021/05/04 03:13:09;;;;;;;7.53;5.72;;;8.10;93.30;;;;;;5046860;28;20032;-76
2021/05/04 03:15:35;;;;;;;12.25;5.70;;;8.10;93.50;;;;;;5069956;28;20339;-75
2021/05/04 03:18:01;;;;;;;8.73;5.32;;;8.00;93.60;;;;;;5061707;28;20029;-78
2021/05/04 03:20:28;;;;;;;13.68;5.30;;;8.00;93.70;;;;;;5061756;28;20100;-77
2021/05/04 03:22:54;;;;;;;7.55;5.45;;;8.00;93.70;;;;;;5071072;28;20040;-74
2021/05/04 03:25:20;;;;;;;6.93;5.43;;;8.10;93.70;;;;;;5052388;28;20043;-76
2021/05/04 03:27:45;;;;;;;10.23;6.10;;;8.10;93.70;;;;;;5062105;28;20032;-77
2021/05/04 03:30:12;;;;;;;10.38;6.43;;;8.10;93.80;;;;;;5050245;28;20036;-74
2021/05/04 03:32:40;;;;;;;15.27;5.68;;;8.10;93.80;;;;;;5073226;28;21500;-76
2021/05/04 03:35:10;;;;;;;8.43;5.50;;;8.10;93.80;;;;;;5050520;28;20414;-73
2021/05/04 03:37:36;;;;;;;9.48;6.38;;;8.10;94.10;;;;;;5081087;28;20060;-76
2021/05/04 03:40:03;;;;;;;7.63;6.13;;;8.00;94.20;;;;;;5084431;28;20036;-76
2021/05/04 03:42:29;;;;;;;12.32;7.47;;;8.00;94.30;;;;;;5063448;28;20036;-76
2021/05/04 03:44:56;;;;;;;12.38;6.32;;;8.00;94.30;;;;;;5077705;28;20120;-74
2021/05/04 03:47:21;;;;;;;13.98;6.70;;;8.00;94.30;;;;;;5061190;28;20122;-76
2021/05/04 03:49:47;;;;;;;10.00;6.53;;;8.00;94.50;;;;;;5080829;28;20060;-76
2021/05/04 03:52:13;;;;;;;8.23;6.07;;;8.00;94.50;;;;;;5089354;28;20033;-77
2021/05/04 03:54:39;;;;;;;12.15;6.00;;;8.10;94.60;;;;;;5074996;28;20032;-76
2021/05/04 03:57:05;;;;;;;8.05;6.03;;;8.00;94.60;;;;;;5076871;28;20061;-77
2021/05/04 03:59:31;;;;;;;12.50;6.43;;;8.10;94.60;;;;;;5059634;28;20064;-75
2021/05/04 04:01:56;;;;;;;8.63;6.60;;;8.00;94.60;;;;;;5066751;28;20052;-75
2021/05/04 04:04:22;;;;;;;8.23;5.70;;;8.10;94.50;;;;;;5048816;28;20043;-73
2021/05/04 04:06:48;;;;;;;8.65;6.10;;;8.10;94.50;;;;;;5075467;28;20029;-73
2021/05/04 04:09:14;;;;;;;8.63;6.68;;;8.10;94.60;;;;;;5076206;28;20395;-77
2021/05/04 04:11:39;;;;;;;9.32;6.47;;;8.10;94.70;;;;;;5078211;28;20032;-76
2021/05/04 04:14:05;;;;;;;15.95;6.65;;;8.10;94.80;;;;;;5071639;28;20305;-74
2021/05/04 04:16:31;;;;;;;10.63;7.75;;;8.10;94.90;;;;;;5050756;28;20035;-76
2021/05/04 04:18:57;;;;;;;9.90;6.20;;;8.10;95.00;;;;;;5071421;28;20036;-76
2021/05/04 04:21:23;;;;;;;11.70;8.18;;;8.10;95.20;;;;;;5069771;28;20048;-75
2021/05/04 04:23:49;;;;;;;8.35;7.15;;;8.10;95.20;;;;;;5077611;28;20123;-75
2021/05/04 04:26:14;;;;;;;11.57;7.43;;;8.10;95.20;;;;;;5081424;28;20032;-76
2021/05/04 04:28:40;;;;;;;8.60;6.18;;;8.10;95.30;;;;;;5066667;28;20061;-75
2021/05/04 04:31:06;;;;;;;6.78;6.05;;;8.10;95.40;;;;;;5077712;28;20305;-76
2021/05/04 04:33:32;;;;;;;8.32;5.97;;;8.10;95.40;;;;;;5080401;28;20054;-74
2021/05/04 04:35:58;;;;;;;7.53;6.28;;;8.10;95.30;;;;;;5077507;28;20093;-76
2021/05/04 04:38:24;;;;;;;7.35;5.40;;;8.20;95.20;;;;;;5036921;28;20402;-76
2021/05/04 04:40:51;;;;;;;7.07;6.07;;;8.20;95.20;;;;;;5066725;28;20036;-77
2021/05/04 04:43:16;;;;;;;8.65;6.03;;;8.20;95.20;;;;;;5070251;28;20044;-75
2021/05/04 04:45:43;;;;;;;11.18;6.47;;;8.30;95.10;;;;;;5069613;28;20037;-75
2021/05/04 04:48:09;;;;;;;8.32;5.72;;;8.20;95.00;;;;;;5054543;28;20039;-76
2021/05/04 04:50:35;;;;;;;10.20;6.82;;;8.30;95.10;;;;;;5068289;28;20047;-76
2021/05/04 04:53:01;;;;;;;8.85;6.30;;;8.20;95.00;;;;;;5069477;28;20402;-76
2021/05/04 04:55:27;;;;;;;7.20;6.05;;;8.30;95.10;;;;;;5068067;28;20343;-76
2021/05/04 04:57:53;;;;;;;9.75;6.50;;;8.20;95.10;;;;;;5066082;28;20086;-76
2021/05/04 05:00:19;;;;;;;11.95;7.25;;;8.20;95.20;;;;;;5082759;28;20032;-76
2021/05/04 05:02:45;;;;;;;10.80;7.00;;;8.20;95.40;;;;;;5053116;28;20414;-75
2021/05/04 05:05:12;;;;;;;9.45;7.45;;;8.20;95.40;;;;;;5065729;28;20028;-75
2021/05/04 05:07:37;;;;;;;8.55;6.88;;;8.20;95.40;;;;;;5071345;28;20047;-76
2021/05/04 05:10:04;;;;;;;6.70;5.88;;;8.20;95.50;;;;;;5069153;28;20809;-76
2021/05/04 05:12:29;;;;;;;9.05;6.82;;;8.20;95.50;;;;;;5036950;28;20274;-76
2021/05/04 05:14:57;;;;;;;8.85;7.15;;;8.20;95.60;;;;;;5054608;28;20605;-73
2021/05/04 05:17:23;;;;;;;9.88;7.45;;;8.20;95.60;;;;;;5048851;28;20043;-74
2021/05/04 05:19:49;;;;;;;11.07;6.60;;;8.20;95.60;;;;;;5079042;28;20215;-77
2021/05/04 05:22:15;;;;;;;8.02;6.70;;;8.20;95.70;;;;;;5080410;28;20479;-73
2021/05/04 05:24:41;;;;;;;8.85;5.70;;;8.20;95.70;;;;;;5086936;28;20048;-73
2021/05/04 05:27:07;;;;;;;6.47;5.47;;;8.30;95.70;;;;;;5083246;28;20036;-72
2021/05/04 05:29:36;;;;;;;9.32;6.35;;;8.30;95.50;;;;;;5086986;28;20088;-76
2021/05/04 05:32:02;;;;;;;7.85;5.88;;;8.30;95.50;;;;;;5068363;28;20040;-77
2021/05/04 05:34:28;;;;;;;5.60;4.70;;;8.30;95.40;;;;;;5086071;28;20039;-77
2021/05/04 05:36:54;;;;;;;7.22;5.30;;;8.40;95.40;;;;;;5076322;28;20036;-76
2021/05/04 05:39:21;;;;;;;7.32;4.85;;;8.40;95.20;;;;;;5067720;28;20071;-76
2021/05/04 05:41:46;;;;;;;7.82;4.70;;;8.50;95.20;;;;;;5080971;28;20093;-75
2021/05/04 05:44:13;;;;;;;9.27;4.88;;;8.50;95.00;;;;;;5080121;28;20044;-76
2021/05/04 05:46:41;;;;;;;6.65;5.00;;;8.60;94.90;;;;;;5077625;28;20039;-76
2021/05/04 05:49:06;;;;;;;5.72;4.60;;;8.60;94.80;;;;;;5074594;28;20030;-77
2021/05/04 05:51:32;;;;;;;6.13;4.85;;;8.60;94.80;;;;;;5064201;28;20031;-74
2021/05/04 05:53:58;;;;;;;8.40;5.03;;;8.60;94.70;;;;;;5069416;28;20085;-75
2021/05/04 05:56:24;;;;;;;10.00;5.28;;;8.60;94.70;;;;;;5065304;28;20036;-73
2021/05/04 05:58:50;;;;;;;6.85;5.22;;;8.60;94.60;;;;;;5071064;28;20028;-73
2021/05/04 06:01:16;;;;;;;9.23;5.18;;;8.60;94.70;;;;;;5069320;28;20085;-75
2021/05/04 06:03:42;;;;;;;5.90;5.25;;;8.60;94.80;;;;;;5058572;28;20040;-74
2021/05/04 06:06:08;;;;;;;13.27;6.55;;;8.60;94.80;;;;;;5049546;28;20039;-73
2021/05/04 06:08:34;;;;;;;6.57;5.40;;;8.60;94.90;;;;;;5045091;28;20036;-76
2021/05/04 06:11:00;;;;;;;5.40;4.50;;;8.50;94.90;;;;;;5066065;28;20062;-76
2021/05/04 06:13:26;;;;;;;7.75;4.70;;;8.50;95.00;;;;;;5057570;28;20177;-76
2021/05/04 06:15:52;;;;;;;8.27;4.70;;;8.50;94.90;;;;;;5035973;28;20035;-74
2021/05/04 06:18:18;;;;;;;5.30;4.65;;;8.60;95.00;;;;;;5049910;28;20501;-78
2021/05/04 06:20:44;;;;;;;7.57;4.22;;;8.70;95.00;;;;;;5061920;28;20035;-75
2021/05/04 06:23:10;;;;;;;7.90;5.03;;;8.80;94.80;;;;;;5072991;28;20043;-73
2021/05/04 06:25:36;;;;;;;5.72;3.97;;;8.80;94.70;;;;;;5074486;28;20111;-78
2021/05/04 06:28:07;;;;;;;6.32;3.97;;;8.90;94.50;;;;;;5054177;28;20082;-76
2021/05/04 06:30:35;;;;;;;3.78;3.47;;;8.90;94.50;;;;;;5057057;28;20036;-77
2021/05/04 06:33:06;;;;;;;4.50;3.67;;;9.00;94.30;;;;;;5071163;28;20153;-76
2021/05/04 06:35:35;;;;;;;6.38;4.00;;;9.00;94.20;;;;;;5066444;28;20046;-73
2021/05/04 06:38:03;;;;;;;4.68;3.90;;;9.10;94.20;;;;;;5048247;28;20032;-75
2021/05/04 06:40:30;;;;;;;4.60;3.65;;;9.20;94.20;;;;;;5074428;28;20036;-77
2021/05/04 06:42:56;;;;;;;6.18;3.95;;;9.20;94.10;;;;;;5072510;28;20080;-75
2021/05/04 06:45:22;;;;;;;4.97;4.28;;;9.20;94.00;;;;;;5084969;28;20059;-74
2021/05/04 06:47:48;;;;;;;5.00;4.47;;;9.20;94.00;;;;;;5052838;28;20067;-73
2021/05/04 06:50:19;;;;;;;8.05;5.00;;;9.20;94.00;;;;;;5078092;28;20044;-75
2021/05/04 06:52:45;;;;;;;6.68;4.07;;;9.20;94.00;;;;;;5078886;28;20036;-75
2021/05/04 06:55:11;;;;;;;12.60;4.57;;;9.30;94.10;;;;;;5071902;28;20334;-76
2021/05/04 06:57:37;;;;;;;8.68;4.75;;;9.30;94.00;;;;;;5073830;28;20071;-75
2021/05/04 07:00:08;;;;;;;10.48;5.15;;;9.40;94.00;;;;;;5079008;28;20064;-77
2021/05/04 07:02:35;;;;;;;12.88;4.82;;;9.40;93.90;;;;;;5084557;28;20035;-74
2021/05/04 07:05:01;;;;;;;16.15;5.25;;;9.50;93.80;;;;;;5080922;28;20048;-75
2021/05/04 07:07:27;;;;;;;12.80;4.85;;;9.50;93.80;;;;;;5085107;28;20093;-76
2021/05/04 07:09:53;;;;;;;10.27;4.20;;;9.60;93.80;;;;;;5086921;28;20040;-76
2021/05/04 07:12:19;;;;;;;11.95;4.82;;;9.60;93.50;;;;;;5052478;28;20387;-74
2021/05/04 07:14:44;;;;;;;14.77;4.90;;;9.70;93.40;;;;;;5042080;28;20044;-74
2021/05/04 07:17:10;;;;;;;11.38;3.67;;;9.70;93.20;;;;;;5068216;28;20714;-76
2021/05/04 07:19:39;;;;;;;9.63;3.92;;;9.70;93.20;;;;;;5068482;28;20044;-75
2021/05/04 07:22:10;;;;;;;8.55;4.10;;;9.90;93.10;;;;;;5051926;28;20119;-77
2021/05/04 07:24:38;;;;;;;7.63;3.85;;;10.00;92.90;;;;;;5067755;28;20100;-76
2021/05/04 07:27:06;;;;;;;10.52;4.00;;;9.90;92.80;;;;;;5063335;28;20409;-75
2021/05/04 07:29:33;;;;;;;14.77;3.83;;;9.90;92.80;;;;;;5072547;28;20047;-74
2021/05/04 07:31:59;;;;;;;10.95;4.68;;;9.90;92.80;;;;;;5077874;28;20028;-75
2021/05/04 07:34:25;;;;;;;13.63;4.57;;;9.90;92.80;;;;;;5087046;28;20078;-76
2021/05/04 07:36:50;;;;;;;12.27;4.43;;;9.80;92.90;;;;;;5071208;28;20106;-75
2021/05/04 07:39:16;;;;;;;10.98;4.22;;;9.70;92.90;;;;;;5078263;28;20537;-76
2021/05/04 07:41:42;;;;;;;12.27;4.05;;;9.70;93.00;;;;;;5072753;28;20063;-74
2021/05/04 07:44:08;;;;;;;14.65;4.93;;;9.60;93.20;;;;;;5078808;28;20449;-76
2021/05/04 07:46:34;;;;;;;13.57;4.05;;;9.60;93.20;;;;;;5072643;28;20063;-77
2021/05/04 07:49:01;;;;;;;16.38;4.03;;;9.70;93.20;;;;;;5068829;28;20522;-76
2021/05/04 07:51:27;;;;;;;10.07;3.05;;;9.70;93.20;;;;;;5066165;28;20051;-76
2021/05/04 07:53:53;;;;;;;7.68;2.25;;;9.70;93.20;;;;;;5042820;28;20523;-78
2021/05/04 07:56:19;;;;;;;13.10;3.33;;;9.60;92.80;;;;;;5070618;28;20033;-74
2021/05/04 07:58:45;;;;;;;15.32;3.22;;;9.40;93.00;;;;;;5058656;28;20559;-76
2021/05/04 08:01:10;;;;;;;12.27;3.47;;;9.30;93.20;;;;;;5052193;28;20060;-76
2021/05/04 08:03:36;;;;;;;16.67;3.85;;;9.30;93.50;;;;;;5065739;28;20047;-74
2021/05/04 08:06:03;;;;;;;20.15;4.07;;;9.30;93.60;;;;;;5075093;28;20047;-75
2021/05/04 08:08:29;;;;;;;15.27;3.35;;;9.30;93.70;;;;;;5087306;28;20118;-76
2021/05/04 08:10:54;;;;;;;14.05;3.10;;;9.40;94.10;;;;;;5079339;28;20118;-73
2021/05/04 08:13:21;;;;;;;15.88;3.60;;;9.50;93.60;;;;;;5066133;28;20036;-77
2021/05/04 08:15:51;;;;;;;13.82;2.72;;;9.50;93.40;;;;;;5083325;28;20111;-73
2021/05/04 08:18:18;;;;;;;12.32;2.85;;;9.60;93.10;;;;;;5067252;28;20040;-74
2021/05/04 08:20:51;;;;;;;13.50;3.00;;;9.70;93.00;;;;;;5075232;28;20028;-75
2021/05/04 08:23:21;;;;;;;11.95;2.72;;;9.70;92.60;;;;;;5074941;28;20450;-74
2021/05/04 08:25:47;;;;;;;13.38;2.78;;;9.80;92.50;;;;;;5059431;28;20043;-76
2021/05/04 08:28:13;;;;;;;12.15;2.70;;;9.80;92.40;;;;;;5066581;28;20037;-73
2021/05/04 08:30:39;;;;;;;13.02;2.83;;;9.80;92.40;;;;;;5067054;28;20099;-77
2021/05/04 08:33:05;;;;;;;12.90;2.40;;;9.80;92.30;;;;;;5070312;28;20178;-77
2021/05/04 08:35:31;;;;;;;11.30;2.72;;;9.90;92.20;;;;;;5075395;28;20490;-75
2021/05/04 08:37:57;;;;;;;16.70;3.13;;;9.90;92.10;;;;;;5078195;28;20047;-75
2021/05/04 08:40:24;;;;;;;16.13;2.85;;;10.00;92.00;;;;;;5086316;28;20036;-79
2021/05/04 08:42:50;;;;;;;23.13;3.50;;;10.20;91.70;;;;;;5089124;28;20046;-76
2021/05/04 08:45:17;;;;;;;18.15;3.40;;;10.30;91.30;;;;;;5075212;28;20516;-76
2021/05/04 08:47:49;;;;;;;18.90;3.20;;;10.40;91.40;;;;;;5083157;28;20098;-73
2021/05/04 08:50:21;;;;;;;17.08;3.47;;;10.50;91.00;;;;;;5077810;28;20036;-77
2021/05/04 08:52:48;;;;;;;14.20;2.97;;;10.50;91.10;;;;;;5062383;28;20043;-77
2021/05/04 08:55:15;;;;;;;14.73;2.90;;;10.50;91.20;;;;;;5067052;28;20033;-77
2021/05/04 08:57:41;;;;;;;14.13;3.80;;;10.60;91.10;;;;;;5067019;28;20062;-75
2021/05/04 09:00:10;;;;;;;15.95;3.33;;;10.60;91.20;;;;;;5056124;28;20059;-73
2021/05/04 09:02:54;;;;;;;16.38;4.40;;;10.60;91.10;;;;;;5069682;28;20036;-80
2021/05/04 09:05:20;;;;;;;8.55;2.75;;;10.50;90.90;;;;;;5068135;28;20036;-80
2021/05/04 09:07:46;;;;;;;18.38;4.68;;;10.40;91.40;;;;;;5051979;28;20677;-78
2021/05/04 09:21:35;;;;;;;3.75;1.38;;;8.50;94.10;;;;;;5088162;28;20036;-76
2021/05/04 09:24:16;;;;;;;5.55;1.52;;;8.40;94.40;;;;;;5078324;28;20052;-75
2021/05/04 09:26:43;;;;;;;9.80;1.60;;;8.20;94.70;;;;;;5072794;28;20059;-75
2021/05/04 09:29:09;;;;;;;6.72;1.23;;;8.20;94.90;;;;;;5063836;28;20040;-79
2021/05/04 09:31:37;;;;;;;6.10;1.67;;;8.10;94.90;;;;;;5068044;28;20128;-72
2021/05/04 09:34:08;;;;;;;8.35;1.70;;;8.20;95.10;;;;;;5072890;28;20077;-73
2021/05/04 09:36:45;;;;;;;13.15;2.20;;;8.30;95.30;;;;;;5066507;28;20055;-78
2021/05/04 09:39:26;;;;;;;9.90;1.95;;;8.50;95.40;;;;;;5070754;28;20525;-77
2021/05/04 09:41:53;;;;;;;12.85;2.22;;;8.60;95.20;;;;;;5070395;28;20041;-76
2021/05/04 09:44:43;;;;;;;13.88;3.35;;;8.70;94.90;;;;;;5022304;28;20513;-75
2021/05/04 09:47:13;;;;;;;18.70;2.90;;;8.80;95.20;;;;;;5066665;28;20537;-76
2021/05/04 09:49:40;;;;;;;16.77;3.55;;;8.90;95.20;;;;;;5055414;28;20401;-75
2021/05/04 09:52:34;;;;;;;16.67;4.03;;;9.10;95.30;;;;;;5074927;28;20777;-75
2021/05/04 09:55:20;;;;;;;12.27;3.30;;;9.40;95.30;;;;;;5073134;28;20039;-75
2021/05/04 09:57:49;;;;;;;10.65;3.65;;;9.90;95.30;;;;;;5061833;28;20561;-72
2021/05/04 10:00:24;;;;;;;11.15;3.20;;;10.10;95.10;;;;;;5048466;28;20505;-74
2021/05/04 10:02:50;;;;;;;16.35;3.70;;;10.30;94.80;;;;;;5067535;28;20246;-77
2021/05/04 10:05:18;;;;;;;13.40;3.72;;;10.30;94.60;;;;;;5071655;28;20100;-73
2021/05/04 10:07:45;;;;;;;16.00;4.03;;;10.40;94.50;;;;;;5067031;28;20055;-76
2021/05/04 10:10:16;;;;;;;14.80;3.92;;;10.30;94.30;;;;;;5060034;28;20032;-76
2021/05/04 10:12:44;;;;;;;13.20;2.75;;;10.30;94.30;;;;;;5068631;28;20040;-76
2021/05/04 10:15:15;;;;;;;10.73;2.80;;;10.20;94.40;;;;;;5073577;28;20100;-76
2021/05/04 10:17:41;;;;;;;12.35;2.53;;;10.30;94.60;;;;;;5074900;28;20501;-77
2021/05/04 10:20:10;;;;;;;11.43;2.20;;;10.60;94.20;;;;;;5082300;28;20044;-79
2021/05/04 10:22:37;;;;;;;10.93;2.22;;;10.70;92.90;;;;;;5085588;28;20048;-77
2021/05/04 10:25:10;;;;;;;8.10;1.95;;;10.80;92.70;;;;;;5087234;28;20544;-78
2021/05/04 10:27:37;;;;;;;;;;;10.90;91.80;;;;;;5074721;28;20039;-75
2021/05/04 10:30:04;;;;;;;11.88;2.60;;;10.90;91.10;;;;;;5067199;28;20509;-78
2021/05/04 10:33:01;;;;;;;9.48;1.85;;;11.10;91.80;;;;;;5053067;28;20028;-79
2021/05/04 10:35:33;;;;;;;10.00;1.65;;;11.20;91.20;;;;;;5061417;28;20152;-79
2021/05/04 10:38:10;;;;;;;8.38;1.90;;;11.10;91.00;;;;;;5068683;28;20082;-77
2021/05/04 10:40:40;;;;;;;4.93;1.65;;;10.90;91.10;;;;;;5074477;28;20513;-78
2021/05/04 10:43:21;;;;;;;9.15;1.92;;;10.60;91.00;;;;;;5072817;28;20037;-75
2021/05/04 10:45:48;;;;;;;16.25;2.95;;;10.40;91.10;;;;;;5073849;28;20047;-73
2021/05/04 10:48:14;;;;;;;15.85;2.90;;;10.20;91.90;;;;;;5085248;28;20042;-80
2021/05/04 10:50:55;;;;;;;21.13;2.75;;;10.00;92.40;;;;;;5067734;28;20088;-81
2021/05/04 10:53:25;;;;;;;7.10;1.60;;;9.70;93.10;;;;;;5068661;28;20511;-79
2021/05/04 10:55:54;;;;;;;19.98;1.23;;;9.20;93.50;;;;;;5068421;28;20040;-78
2021/05/04 10:58:24;;;;;;;3.55;0.80;;;8.60;94.00;;;;;;5070731;28;20033;-77
2021/05/04 11:01:04;;;;;;;5.28;0.90;;;8.00;94.90;;;;;;5068347;28;20032;-75
2021/05/04 11:03:33;;;;;;;2.88;0.70;;;7.70;95.60;;;;;;5070326;28;20124;-78
2021/05/04 11:06:12;;;;;;;3.38;0.88;;;7.50;96.20;;;;;;5065744;28;20082;-77
2021/05/04 11:08:41;;;;;;;2.50;0.80;;;7.50;96.80;;;;;;5085470;28;21355;-79
2021/05/04 11:11:26;;;;;;;3.55;1.25;;;7.50;97.50;;;;;;5084168;28;20139;-76
2021/05/04 11:13:57;;;;;;;6.18;1.67;;;7.70;97.80;;;;;;5069750;28;20102;-76
2021/05/04 11:16:36;;;;;;;8.13;2.15;;;8.00;98.40;;;;;;5064697;28;20036;-76
2021/05/04 11:19:06;;;;;;;7.82;2.03;;;8.30;98.40;;;;;;5064431;28;20418;-76
2021/05/04 11:21:52;;;;;;;7.57;2.55;;;8.50;98.20;;;;;;5064382;28;20067;-75
2021/05/04 11:24:21;;;;;;;7.55;2.50;;;8.70;98.10;;;;;;5072816;28;20036;-77
2021/05/04 11:26:56;;;;;;;5.88;3.00;;;8.90;97.90;;;;;;5082532;28;20090;-76
2021/05/04 11:29:44;;;;;;;18.23;3.75;;;8.90;97.60;;;;;;5076402;28;20063;-75
2021/05/04 11:32:19;;;;;;;14.20;5.97;;;8.90;97.60;;;;;;5075275;28;20032;-77
2021/05/04 11:34:46;;;;;;;9.13;3.40;;;9.10;97.90;;;;;;5083367;28;20035;-77
2021/05/04 11:37:26;;;;;;;6.88;3.00;;;9.30;97.10;;;;;;5067078;28;20482;-77
2021/05/04 11:40:02;;;;;;;7.75;2.53;;;9.30;97.00;;;;;;5066150;28;20419;-78
2021/05/04 11:42:42;;;;;;;11.27;3.25;;;9.30;96.60;;;;;;5067270;28;20036;-75
2021/05/04 11:45:13;;;;;;;6.10;1.80;;;9.10;96.00;;;;;;5072826;28;20036;-77
2021/05/04 11:47:41;;;;;;;5.47;1.90;;;8.90;95.80;;;;;;5073282;28;20490;-76
2021/05/04 11:50:13;;;;;;;5.88;1.95;;;8.60;96.10;;;;;;5071887;28;20032;-75
2021/05/04 11:52:41;;;;;;;5.45;1.75;;;8.40;96.30;;;;;;5071875;28;20448;-75
2021/05/04 11:55:10;;;;;;;9.43;1.98;;;8.20;96.50;;;;;;5071999;28;20047;-77
2021/05/04 11:57:37;;;;;;;9.60;2.35;;;8.10;96.60;;;;;;5071752;28;20118;-77
2021/05/04 12:00:06;;;;;;;4.93;2.38;;;7.90;96.50;;;;;;5063006;28;20033;-77
2021/05/04 12:02:33;;;;;;;6.97;2.38;;;7.90;97.20;;;;;;5073203;28;20036;-76
2021/05/04 12:04:59;;;;;;;10.02;2.50;;;8.20;97.90;;;;;;5079048;28;20338;-77
2021/05/04 12:07:40;;;;;;;7.75;2.40;;;8.30;97.50;;;;;;5080123;28;20040;-78
2021/05/04 12:10:21;;;;;;;10.85;3.33;;;8.30;97.10;;;;;;5067605;28;20051;-79
2021/05/04 12:12:53;;;;;;;41.25;2.97;;;8.20;97.00;;;;;;5074917;28;20679;-79
2021/05/04 12:15:21;;;;;;;2.95;2.10;;;7.80;95.70;;;;;;5075532;28;20036;-78
2021/05/04 12:17:59;;;;;;;8.75;2.50;;;7.30;96.20;;;;;;5073309;28;20627;-79
2021/05/04 12:20:26;;;;;;;10.27;2.65;;;7.00;97.30;;;;;;5072981;28;20411;-78
2021/05/04 12:22:55;;;;;;;6.63;2.20;;;6.90;97.50;;;;;;5057532;28;20071;-78
2021/05/04 12:25:27;;;;;;;7.68;2.17;;;6.80;97.50;;;;;;5066995;28;20287;-79
2021/05/04 12:27:54;;;;;;;8.20;2.78;;;6.80;97.60;;;;;;5066545;28;20951;-78
2021/05/04 12:30:22;;;;;;;7.07;2.65;;;6.80;97.90;;;;;;5075017;28;20460;-79
2021/05/04 12:32:49;;;;;;;7.60;3.60;;;6.80;98.10;;;;;;5083272;28;20085;-77
2021/05/04 12:35:30;;;;;;;9.68;3.33;;;6.90;98.10;;;;;;5085824;28;20061;-77
2021/05/04 12:38:37;;;;;;;7.90;3.50;;;6.90;98.10;;;;;;5081390;28;20033;-77
2021/05/04 12:41:15;;;;;;;13.32;3.25;;;7.10;98.40;;;;;;5085848;28;20395;-78
2021/05/04 12:43:59;;;;;;;12.88;3.40;;;7.30;98.40;;;;;;5091923;28;20040;-77
2021/05/04 12:46:31;;;;;;;11.30;2.97;;;7.50;98.30;;;;;;5109856;28;20036;-77
2021/05/04 12:48:58;;;;;;;7.28;2.70;;;7.60;98.20;;;;;;5091133;28;20123;-77
2021/05/04 12:51:29;;;;;;;10.07;2.78;;;7.90;98.30;;;;;;5067434;28;20063;-78
2021/05/04 12:54:15;;;;;;;9.25;3.60;;;7.90;97.30;;;;;;5072767;28;20031;-78
2021/05/04 12:56:42;;;;;;;8.73;2.67;;;7.80;97.40;;;;;;5080794;28;20126;-77
2021/05/04 12:59:10;;;;;;;8.63;2.92;;;7.80;97.40;;;;;;5068736;28;20028;-77
2021/05/04 13:01:53;;;;;;;9.13;2.40;;;7.80;97.10;;;;;;5053103;28;20119;-79
2021/05/04 13:37:21;;;;;;;11.15;2.78;;;7.60;97.40;;;;;;5078864;28;20043;-77
2021/05/04 13:48:06;;;;;;;13.35;3.70;;;7.70;97.50;;;;;;5078386;28;20028;-76